sensor_id;sensor_type;location;lat;lon;timestamp;temperature;humidity
37956;DHT22;23776;51.592;7.180;2023-02-13T00:00:46;9.10;99.90
37956;DHT22;23776;51.592;7.180;2023-02-13T00:03:12;9.10;99.90
37956;DHT22;23776;51.592;7.180;2023-02-13T00:05:37;9.10;99.90
37956;DHT22;23776;51.592;7.180;2023-02-13T00:08:03;9.00;1.00
37956;DHT22;23776;51.592;7.180;2023-02-13T00:10:28;9.00;1.00
37956;DHT22;23776;51.592;7.180;2023-02-13T00:12:54;9.00;1.00
37956;DHT22;23776;51.592;7.180;2023-02-13T00:15:20;9.00;1.00
37956;DHT22;23776;51.592;7.180;2023-02-13T00:17:45;9.00;1.00
37956;DHT22;23776;51.592;7.180;2023-02-13T00:20:11;9.00;1.00
37956;DHT22;23776;51.592;7.180;2023-02-13T00:22:38;9.00;1.00
37956;DHT22;23776;51.592;7.180;2023-02-13T00:25:04;9.10;1.00
37956;DHT22;23776;51.592;7.180;2023-02-13T00:27:31;9.00;1.00
37956;DHT22;23776;51.592;7.180;2023-02-13T00:29:57;9.00;1.00
37956;DHT22;23776;51.592;7.180;2023-02-13T00:32:22;9.00;1.00
37956;DHT22;23776;51.592;7.180;2023-02-13T00:34:48;9.00;1.00
37956;DHT22;23776;51.592;7.180;2023-02-13T00:37:13;8.90;1.00
37956;DHT22;23776;51.592;7.180;2023-02-13T00:39:39;8.90;1.00
37956;DHT22;23776;51.592;7.180;2023-02-13T00:42:05;9.00;1.00
37956;DHT22;23776;51.592;7.180;2023-02-13T00:44:31;8.90;1.00
37956;DHT22;23776;51.592;7.180;2023-02-13T00:46:57;8.90;1.00
37956;DHT22;23776;51.592;7.180;2023-02-13T00:49:22;9.00;1.00
37956;DHT22;23776;51.592;7.180;2023-02-13T00:51:48;8.90;1.00
37956;DHT22;23776;51.592;7.180;2023-02-13T00:54:14;8.90;1.00
37956;DHT22;23776;51.592;7.180;2023-02-13T00:56:39;8.90;1.00
37956;DHT22;23776;51.592;7.180;2023-02-13T00:59:05;8.90;1.00
37956;DHT22;23776;51.592;7.180;2023-02-13T01:01:30;9.00;1.00
37956;DHT22;23776;51.592;7.180;2023-02-13T01:03:56;8.90;1.00
37956;DHT22;23776;51.592;7.180;2023-02-13T01:06:22;8.90;1.00
37956;DHT22;23776;51.592;7.180;2023-02-13T01:08:47;8.90;1.00
37956;DHT22;23776;51.592;7.180;2023-02-13T01:11:13;8.90;1.00
37956;DHT22;23776;51.592;7.180;2023-02-13T01:13:39;8.90;1.00
37956;DHT22;23776;51.592;7.180;2023-02-13T01:16:05;8.90;1.00
37956;DHT22;23776;51.592;7.180;2023-02-13T01:18:31;8.90;1.00
37956;DHT22;23776;51.592;7.180;2023-02-13T01:21:03;9.00;1.00
37956;DHT22;23776;51.592;7.180;2023-02-13T01:23:30;9.00;1.00
37956;DHT22;23776;51.592;7.180;2023-02-13T01:25:56;8.90;1.00
37956;DHT22;23776;51.592;7.180;2023-02-13T01:28:22;8.90;1.00
37956;DHT22;23776;51.592;7.180;2023-02-13T01:30:57;8.90;1.00
37956;DHT22;23776;51.592;7.180;2023-02-13T01:33:24;8.80;1.00
37956;DHT22;23776;51.592;7.180;2023-02-13T01:35:50;8.90;1.00
37956;DHT22;23776;51.592;7.180;2023-02-13T01:38:16;8.90;1.00
37956;DHT22;23776;51.592;7.180;2023-02-13T01:40:51;8.90;1.00
37956;DHT22;23776;51.592;7.180;2023-02-13T01:43:18;8.90;1.00
37956;DHT22;23776;51.592;7.180;2023-02-13T01:45:46;8.80;1.00
37956;DHT22;23776;51.592;7.180;2023-02-13T01:48:21;8.90;1.00
37956;DHT22;23776;51.592;7.180;2023-02-13T01:53:26;8.90;1.00
37956;DHT22;23776;51.592;7.180;2023-02-13T01:56:02;9.00;1.00
37956;DHT22;23776;51.592;7.180;2023-02-13T01:58:32;9.00;1.00
37956;DHT22;23776;51.592;7.180;2023-02-13T02:01:00;9.00;1.00
37956;DHT22;23776;51.592;7.180;2023-02-13T02:03:34;8.90;1.00
37956;DHT22;23776;51.592;7.180;2023-02-13T02:06:01;8.90;1.00
37956;DHT22;23776;51.592;7.180;2023-02-13T02:08:28;8.90;1.00
37956;DHT22;23776;51.592;7.180;2023-02-13T02:10:55;8.90;1.00
37956;DHT22;23776;51.592;7.180;2023-02-13T02:13:25;8.80;1.00
37956;DHT22;23776;51.592;7.180;2023-02-13T02:15:51;8.80;1.00
37956;DHT22;23776;51.592;7.180;2023-02-13T02:18:20;8.80;1.00
37956;DHT22;23776;51.592;7.180;2023-02-13T02:26:41;8.90;1.00
37956;DHT22;23776;51.592;7.180;2023-02-13T02:45:53;8.80;1.00
37956;DHT22;23776;51.592;7.180;2023-02-13T02:51:25;8.90;1.00
37956;DHT22;23776;51.592;7.180;2023-02-13T02:54:01;8.90;1.00
37956;DHT22;23776;51.592;7.180;2023-02-13T02:56:49;8.90;1.00
37956;DHT22;23776;51.592;7.180;2023-02-13T02:59:19;8.90;1.00
37956;DHT22;23776;51.592;7.180;2023-02-13T03:02:04;8.90;1.00
37956;DHT22;23776;51.592;7.180;2023-02-13T03:04:54;9.00;1.00
37956;DHT22;23776;51.592;7.180;2023-02-13T03:07:40;9.00;1.00
37956;DHT22;23776;51.592;7.180;2023-02-13T03:10:12;8.90;1.00
37956;DHT22;23776;51.592;7.180;2023-02-13T03:13:09;8.90;1.00
37956;DHT22;23776;51.592;7.180;2023-02-13T03:15:46;8.90;1.00
37956;DHT22;23776;51.592;7.180;2023-02-13T03:18:35;8.90;1.00
37956;DHT22;23776;51.592;7.180;2023-02-13T03:27:34;8.90;99.90
37956;DHT22;23776;51.592;7.180;2023-02-13T03:35:49;8.90;99.90
37956;DHT22;23776;51.592;7.180;2023-02-13T03:41:57;8.90;99.90
37956;DHT22;23776;51.592;7.180;2023-02-13T03:44:30;8.90;99.90
37956;DHT22;23776;51.592;7.180;2023-02-13T03:46:59;9.00;99.90
37956;DHT22;23776;51.592;7.180;2023-02-13T03:49:43;9.00;99.90
37956;DHT22;23776;51.592;7.180;2023-02-13T03:52:29;9.00;99.90
37956;DHT22;23776;51.592;7.180;2023-02-13T03:55:15;8.90;99.90
37956;DHT22;23776;51.592;7.180;2023-02-13T03:58:43;8.90;99.90
37956;DHT22;23776;51.592;7.180;2023-02-13T04:01:28;8.80;99.90
37956;DHT22;23776;51.592;7.180;2023-02-13T04:06:53;8.80;99.90
37956;DHT22;23776;51.592;7.180;2023-02-13T04:09:21;8.90;99.90
37956;DHT22;23776;51.592;7.180;2023-02-13T04:12:08;8.90;99.90
37956;DHT22;23776;51.592;7.180;2023-02-13T04:14:52;8.80;99.90
37956;DHT22;23776;51.592;7.180;2023-02-13T04:17:24;8.80;99.90
37956;DHT22;23776;51.592;7.180;2023-02-13T04:19:52;8.80;99.90
37956;DHT22;23776;51.592;7.180;2023-02-13T04:22:17;8.80;99.90
37956;DHT22;23776;51.592;7.180;2023-02-13T04:24:43;8.80;99.90
37956;DHT22;23776;51.592;7.180;2023-02-13T04:27:13;8.80;99.90
37956;DHT22;23776;51.592;7.180;2023-02-13T04:29:39;8.70;99.90
37956;DHT22;23776;51.592;7.180;2023-02-13T04:32:05;8.70;99.90
37956;DHT22;23776;51.592;7.180;2023-02-13T04:34:30;8.70;99.90
37956;DHT22;23776;51.592;7.180;2023-02-13T04:36:56;8.70;99.90
37956;DHT22;23776;51.592;7.180;2023-02-13T04:39:21;8.70;99.90
37956;DHT22;23776;51.592;7.180;2023-02-13T04:41:47;8.80;99.90
37956;DHT22;23776;51.592;7.180;2023-02-13T04:44:13;8.70;99.90
37956;DHT22;23776;51.592;7.180;2023-02-13T04:46:38;8.80;99.90
37956;DHT22;23776;51.592;7.180;2023-02-13T04:49:04;8.80;99.90
37956;DHT22;23776;51.592;7.180;2023-02-13T04:51:29;8.70;99.90
37956;DHT22;23776;51.592;7.180;2023-02-13T04:53:55;8.60;99.90
37956;DHT22;23776;51.592;7.180;2023-02-13T04:56:20;8.60;99.90
37956;DHT22;23776;51.592;7.180;2023-02-13T04:58:46;8.50;99.90
37956;DHT22;23776;51.592;7.180;2023-02-13T05:01:13;8.60;99.90
37956;DHT22;23776;51.592;7.180;2023-02-13T05:03:39;8.60;99.90
37956;DHT22;23776;51.592;7.180;2023-02-13T05:06:05;8.50;99.90
37956;DHT22;23776;51.592;7.180;2023-02-13T05:08:31;8.50;99.90
37956;DHT22;23776;51.592;7.180;2023-02-13T05:10:56;8.50;99.90
37956;DHT22;23776;51.592;7.180;2023-02-13T05:13:22;8.50;99.90
37956;DHT22;23776;51.592;7.180;2023-02-13T05:15:48;8.40;99.90
37956;DHT22;23776;51.592;7.180;2023-02-13T05:18:13;8.50;99.90
37956;DHT22;23776;51.592;7.180;2023-02-13T05:20:40;8.50;99.90
37956;DHT22;23776;51.592;7.180;2023-02-13T05:23:12;8.40;99.90
37956;DHT22;23776;51.592;7.180;2023-02-13T05:25:48;8.50;99.90
37956;DHT22;23776;51.592;7.180;2023-02-13T05:28:13;8.40;99.90
37956;DHT22;23776;51.592;7.180;2023-02-13T05:30:58;8.50;99.90
37956;DHT22;23776;51.592;7.180;2023-02-13T05:33:24;8.50;99.90
37956;DHT22;23776;51.592;7.180;2023-02-13T05:35:50;8.50;99.90
37956;DHT22;23776;51.592;7.180;2023-02-13T05:38:15;8.50;99.90
37956;DHT22;23776;51.592;7.180;2023-02-13T05:40:41;8.40;99.90
37956;DHT22;23776;51.592;7.180;2023-02-13T05:43:07;8.40;99.90
37956;DHT22;23776;51.592;7.180;2023-02-13T05:45:32;8.40;99.90
37956;DHT22;23776;51.592;7.180;2023-02-13T05:47:58;8.40;99.90
37956;DHT22;23776;51.592;7.180;2023-02-13T05:50:23;8.40;99.90
37956;DHT22;23776;51.592;7.180;2023-02-13T05:52:49;8.30;99.90
37956;DHT22;23776;51.592;7.180;2023-02-13T05:55:15;8.30;99.90
37956;DHT22;23776;51.592;7.180;2023-02-13T05:57:40;8.30;99.90
37956;DHT22;23776;51.592;7.180;2023-02-13T06:00:06;8.30;99.90
37956;DHT22;23776;51.592;7.180;2023-02-13T06:02:32;8.30;99.90
37956;DHT22;23776;51.592;7.180;2023-02-13T06:04:57;8.30;99.90
37956;DHT22;23776;51.592;7.180;2023-02-13T06:07:23;8.30;99.90
37956;DHT22;23776;51.592;7.180;2023-02-13T06:09:49;8.30;99.90
37956;DHT22;23776;51.592;7.180;2023-02-13T06:12:14;8.30;1.00
37956;DHT22;23776;51.592;7.180;2023-02-13T06:14:40;8.40;1.00
37956;DHT22;23776;51.592;7.180;2023-02-13T06:17:06;8.50;1.00
37956;DHT22;23776;51.592;7.180;2023-02-13T06:19:32;8.40;99.90
37956;DHT22;23776;51.592;7.180;2023-02-13T06:21:57;8.40;99.90
37956;DHT22;23776;51.592;7.180;2023-02-13T06:24:23;8.40;99.90
37956;DHT22;23776;51.592;7.180;2023-02-13T06:26:49;8.40;1.00
37956;DHT22;23776;51.592;7.180;2023-02-13T06:29:14;8.40;1.00
37956;DHT22;23776;51.592;7.180;2023-02-13T06:31:40;8.40;1.00
37956;DHT22;23776;51.592;7.180;2023-02-13T06:34:06;8.40;1.00
37956;DHT22;23776;51.592;7.180;2023-02-13T06:36:32;8.50;1.00
37956;DHT22;23776;51.592;7.180;2023-02-13T06:38:58;8.50;1.00
37956;DHT22;23776;51.592;7.180;2023-02-13T06:41:24;8.40;1.00
37956;DHT22;23776;51.592;7.180;2023-02-13T06:43:49;8.40;1.00
37956;DHT22;23776;51.592;7.180;2023-02-13T06:46:15;8.40;1.00
37956;DHT22;23776;51.592;7.180;2023-02-13T06:48:40;8.40;1.00
37956;DHT22;23776;51.592;7.180;2023-02-13T06:51:06;8.40;1.00
37956;DHT22;23776;51.592;7.180;2023-02-13T06:53:33;8.30;1.00
37956;DHT22;23776;51.592;7.180;2023-02-13T06:56:02;8.20;1.00
37956;DHT22;23776;51.592;7.180;2023-02-13T06:58:30;8.20;1.00
37956;DHT22;23776;51.592;7.180;2023-02-13T07:00:56;8.10;1.00
37956;DHT22;23776;51.592;7.180;2023-02-13T07:03:21;8.10;1.00
37956;DHT22;23776;51.592;7.180;2023-02-13T07:05:47;8.10;1.00
37956;DHT22;23776;51.592;7.180;2023-02-13T07:08:16;8.10;1.00
37956;DHT22;23776;51.592;7.180;2023-02-13T07:10:41;9.70;1.00
37956;DHT22;23776;51.592;7.180;2023-02-13T07:13:08;8.00;1.00
37956;DHT22;23776;51.592;7.180;2023-02-13T07:15:34;7.90;1.00
37956;DHT22;23776;51.592;7.180;2023-02-13T07:18:01;8.00;1.00
37956;DHT22;23776;51.592;7.180;2023-02-13T07:20:27;7.90;1.00
37956;DHT22;23776;51.592;7.180;2023-02-13T07:22:57;8.00;1.00
37956;DHT22;23776;51.592;7.180;2023-02-13T07:25:24;7.90;1.00
37956;DHT22;23776;51.592;7.180;2023-02-13T07:27:49;7.90;1.00
37956;DHT22;23776;51.592;7.180;2023-02-13T07:30:15;7.90;1.00
37956;DHT22;23776;51.592;7.180;2023-02-13T07:32:41;7.80;1.00
37956;DHT22;23776;51.592;7.180;2023-02-13T07:35:06;7.80;1.00
37956;DHT22;23776;51.592;7.180;2023-02-13T07:37:32;7.80;1.00
37956;DHT22;23776;51.592;7.180;2023-02-13T07:39:58;7.80;1.00
37956;DHT22;23776;51.592;7.180;2023-02-13T07:42:23;7.80;1.00
37956;DHT22;23776;51.592;7.180;2023-02-13T07:44:49;7.80;1.00
37956;DHT22;23776;51.592;7.180;2023-02-13T07:47:15;7.80;1.00
37956;DHT22;23776;51.592;7.180;2023-02-13T07:49:40;7.90;1.00
37956;DHT22;23776;51.592;7.180;2023-02-13T07:52:06;7.80;1.00
37956;DHT22;23776;51.592;7.180;2023-02-13T07:54:32;7.80;1.00
37956;DHT22;23776;51.592;7.180;2023-02-13T07:56:58;7.80;1.00
37956;DHT22;23776;51.592;7.180;2023-02-13T07:59:24;7.80;1.00
37956;DHT22;23776;51.592;7.180;2023-02-13T08:01:49;7.80;1.00
37956;DHT22;23776;51.592;7.180;2023-02-13T08:04:15;7.90;1.00
37956;DHT22;23776;51.592;7.180;2023-02-13T08:06:42;8.00;1.00
37956;DHT22;23776;51.592;7.180;2023-02-13T08:09:17;8.00;1.00
37956;DHT22;23776;51.592;7.180;2023-02-13T08:12:01;8.10;1.00
37956;DHT22;23776;51.592;7.180;2023-02-13T08:14:26;8.00;1.00
37956;DHT22;23776;51.592;7.180;2023-02-13T08:16:53;8.10;1.00
37956;DHT22;23776;51.592;7.180;2023-02-13T08:19:19;9.10;1.00
37956;DHT22;23776;51.592;7.180;2023-02-13T08:21:45;9.00;1.00
37956;DHT22;23776;51.592;7.180;2023-02-13T08:24:11;8.20;1.00
37956;DHT22;23776;51.592;7.180;2023-02-13T08:26:37;8.20;1.00
37956;DHT22;23776;51.592;7.180;2023-02-13T08:29:04;8.30;1.00
37956;DHT22;23776;51.592;7.180;2023-02-13T08:31:29;8.40;1.00
37956;DHT22;23776;51.592;7.180;2023-02-13T08:33:56;8.30;1.00
37956;DHT22;23776;51.592;7.180;2023-02-13T08:36:22;8.30;1.00
37956;DHT22;23776;51.592;7.180;2023-02-13T08:38:48;8.40;1.00
37956;DHT22;23776;51.592;7.180;2023-02-13T08:41:14;8.70;1.00
37956;DHT22;23776;51.592;7.180;2023-02-13T08:43:40;8.50;1.00
37956;DHT22;23776;51.592;7.180;2023-02-13T08:46:05;8.60;1.00
37956;DHT22;23776;51.592;7.180;2023-02-13T08:48:31;8.60;1.00
37956;DHT22;23776;51.592;7.180;2023-02-13T08:50:57;8.90;1.00
37956;DHT22;23776;51.592;7.180;2023-02-13T08:53:22;8.80;1.00
37956;DHT22;23776;51.592;7.180;2023-02-13T08:55:55;8.70;1.00
37956;DHT22;23776;51.592;7.180;2023-02-13T08:58:21;8.70;1.00
37956;DHT22;23776;51.592;7.180;2023-02-13T09:00:47;8.70;1.00
37956;DHT22;23776;51.592;7.180;2023-02-13T09:03:13;8.80;99.90
37956;DHT22;23776;51.592;7.180;2023-02-13T09:05:38;8.80;99.90
37956;DHT22;23776;51.592;7.180;2023-02-13T09:08:04;8.80;99.90
37956;DHT22;23776;51.592;7.180;2023-02-13T09:10:31;8.90;99.90
37956;DHT22;23776;51.592;7.180;2023-02-13T09:12:56;9.00;99.90
37956;DHT22;23776;51.592;7.180;2023-02-13T09:15:22;9.00;99.90
37956;DHT22;23776;51.592;7.180;2023-02-13T09:17:48;9.00;99.90
37956;DHT22;23776;51.592;7.180;2023-02-13T09:20:13;9.10;99.90
37956;DHT22;23776;51.592;7.180;2023-02-13T09:22:40;9.20;99.90
37956;DHT22;23776;51.592;7.180;2023-02-13T09:25:06;9.30;99.90
37956;DHT22;23776;51.592;7.180;2023-02-13T09:27:33;9.30;99.90
37956;DHT22;23776;51.592;7.180;2023-02-13T09:29:59;9.30;99.90
37956;DHT22;23776;51.592;7.180;2023-02-13T09:32:25;9.40;99.90
37956;DHT22;23776;51.592;7.180;2023-02-13T09:34:51;9.40;99.90
37956;DHT22;23776;51.592;7.180;2023-02-13T09:37:16;9.40;99.90
37956;DHT22;23776;51.592;7.180;2023-02-13T09:39:42;9.70;99.90
37956;DHT22;23776;51.592;7.180;2023-02-13T09:42:32;9.60;35.50
37956;DHT22;23776;51.592;7.180;2023-02-13T09:45:03;9.60;1.00
37956;DHT22;23776;51.592;7.180;2023-02-13T09:47:30;9.60;99.90
37956;DHT22;23776;51.592;7.180;2023-02-13T09:50:10;9.60;99.90
37956;DHT22;23776;51.592;7.180;2023-02-13T09:52:38;9.70;99.90
37956;DHT22;23776;51.592;7.180;2023-02-13T09:58:06;9.80;99.90
37956;DHT22;23776;51.592;7.180;2023-02-13T10:00:39;9.90;1.00
37956;DHT22;23776;51.592;7.180;2023-02-13T10:05:41;10.00;99.90
37956;DHT22;23776;51.592;7.180;2023-02-13T10:08:33;10.00;99.90
37956;DHT22;23776;51.592;7.180;2023-02-13T10:19:12;10.40;99.90
37956;DHT22;23776;51.592;7.180;2023-02-13T10:21:46;10.50;77.40
37956;DHT22;23776;51.592;7.180;2023-02-13T10:24:32;10.50;80.70
37956;DHT22;23776;51.592;7.180;2023-02-13T10:27:02;10.60;1.00
37956;DHT22;23776;51.592;7.180;2023-02-13T10:29:37;10.70;99.90
37956;DHT22;23776;51.592;7.180;2023-02-13T10:32:29;10.80;32.50
37956;DHT22;23776;51.592;7.180;2023-02-13T10:34:58;10.70;1.00
37956;DHT22;23776;51.592;7.180;2023-02-13T10:37:26;10.90;30.40
37956;DHT22;23776;51.592;7.180;2023-02-13T10:39:52;11.00;1.00
37956;DHT22;23776;51.592;7.180;2023-02-13T10:42:20;11.00;1.00
37956;DHT22;23776;51.592;7.180;2023-02-13T10:45:00;11.10;99.90
37956;DHT22;23776;51.592;7.180;2023-02-13T10:53:18;11.20;33.40
37956;DHT22;23776;51.592;7.180;2023-02-13T10:58:49;11.40;1.00
37956;DHT22;23776;51.592;7.180;2023-02-13T11:01:24;11.50;1.00
37956;DHT22;23776;51.592;7.180;2023-02-13T11:04:10;11.70;99.90
37956;DHT22;23776;51.592;7.180;2023-02-13T11:06:41;11.80;99.90
37956;DHT22;23776;51.592;7.180;2023-02-13T11:09:07;11.90;55.10
37956;DHT22;23776;51.592;7.180;2023-02-13T11:11:37;12.10;1.00
37956;DHT22;23776;51.592;7.180;2023-02-13T11:14:13;12.30;99.90
37956;DHT22;23776;51.592;7.180;2023-02-13T11:19:17;12.60;44.60
37956;DHT22;23776;51.592;7.180;2023-02-13T11:21:43;13.30;99.90
37956;DHT22;23776;51.592;7.180;2023-02-13T11:24:18;14.90;1.00
37956;DHT22;23776;51.592;7.180;2023-02-13T11:26:51;16.20;1.00
37956;DHT22;23776;51.592;7.180;2023-02-13T11:29:31;17.50;99.90
37956;DHT22;23776;51.592;7.180;2023-02-13T11:34:33;19.50;1.00
37956;DHT22;23776;51.592;7.180;2023-02-13T11:37:18;20.40;1.00
37956;DHT22;23776;51.592;7.180;2023-02-13T11:39:46;21.00;99.90
37956;DHT22;23776;51.592;7.180;2023-02-13T11:42:20;21.60;99.90
37956;DHT22;23776;51.592;7.180;2023-02-13T11:44:52;21.80;99.90
37956;DHT22;23776;51.592;7.180;2023-02-13T11:47:50;22.20;99.90
37956;DHT22;23776;51.592;7.180;2023-02-13T11:50:27;22.60;99.90
37956;DHT22;23776;51.592;7.180;2023-02-13T11:53:01;22.80;99.90
37956;DHT22;23776;51.592;7.180;2023-02-13T11:55:38;23.10;99.90
37956;DHT22;23776;51.592;7.180;2023-02-13T12:00:37;23.50;99.90
37956;DHT22;23776;51.592;7.180;2023-02-13T12:03:25;23.70;99.90
37956;DHT22;23776;51.592;7.180;2023-02-13T12:06:12;24.10;99.90
37956;DHT22;23776;51.592;7.180;2023-02-13T12:08:40;24.50;99.90
37956;DHT22;23776;51.592;7.180;2023-02-13T12:14:11;24.30;99.90
37956;DHT22;23776;51.592;7.180;2023-02-13T12:16:54;24.30;99.90
37956;DHT22;23776;51.592;7.180;2023-02-13T12:19:48;24.60;99.90
37956;DHT22;23776;51.592;7.180;2023-02-13T12:44:26;25.80;99.90
37956;DHT22;23776;51.592;7.180;2023-02-13T12:52:46;24.70;99.90
37956;DHT22;23776;51.592;7.180;2023-02-13T12:55:29;24.30;99.90
37956;DHT22;23776;51.592;7.180;2023-02-13T13:00:46;23.80;99.90
37956;DHT22;23776;51.592;7.180;2023-02-13T13:17:26;20.20;99.90
37956;DHT22;23776;51.592;7.180;2023-02-13T13:22:50;19.70;99.90
37956;DHT22;23776;51.592;7.180;2023-02-13T13:25:44;19.50;99.90
37956;DHT22;23776;51.592;7.180;2023-02-13T13:28:18;19.50;99.90
37956;DHT22;23776;51.592;7.180;2023-02-13T13:30:46;19.30;99.90
37956;DHT22;23776;51.592;7.180;2023-02-13T13:33:21;19.30;99.90
37956;DHT22;23776;51.592;7.180;2023-02-13T13:36:13;19.20;99.90
37956;DHT22;23776;51.592;7.180;2023-02-13T13:44:29;19.70;99.90
37956;DHT22;23776;51.592;7.180;2023-02-13T13:49:57;20.00;99.90
37956;DHT22;23776;51.592;7.180;2023-02-13T13:52:40;19.70;99.90
37956;DHT22;23776;51.592;7.180;2023-02-13T14:01:22;18.60;99.90
37956;DHT22;23776;51.592;7.180;2023-02-13T14:06:23;18.30;99.90
37956;DHT22;23776;51.592;7.180;2023-02-13T14:13:51;17.80;99.90
37956;DHT22;23776;51.592;7.180;2023-02-13T14:19:03;17.60;99.90
37956;DHT22;23776;51.592;7.180;2023-02-13T14:21:30;17.50;99.90
37956;DHT22;23776;51.592;7.180;2023-02-13T14:23:57;17.50;99.90
37956;DHT22;23776;51.592;7.180;2023-02-13T14:26:39;17.30;99.90
37956;DHT22;23776;51.592;7.180;2023-02-13T14:29:16;17.30;99.90
37956;DHT22;23776;51.592;7.180;2023-02-13T14:32:35;17.30;99.90
37956;DHT22;23776;51.592;7.180;2023-02-13T14:34:45;17.30;99.90
37956;DHT22;23776;51.592;7.180;2023-02-13T14:37:18;17.40;99.90
37956;DHT22;23776;51.592;7.180;2023-02-13T14:42:55;17.30;99.90
37956;DHT22;23776;51.592;7.180;2023-02-13T14:45:26;17.20;99.90
37956;DHT22;23776;51.592;7.180;2023-02-13T14:47:54;17.20;99.90
37956;DHT22;23776;51.592;7.180;2023-02-13T14:50:42;17.30;99.90
37956;DHT22;23776;51.592;7.180;2023-02-13T14:53:25;17.60;99.90
37956;DHT22;23776;51.592;7.180;2023-02-13T14:55:58;17.30;99.90
37956;DHT22;23776;51.592;7.180;2023-02-13T14:58:31;17.30;99.90
37956;DHT22;23776;51.592;7.180;2023-02-13T15:01:10;17.30;99.90
37956;DHT22;23776;51.592;7.180;2023-02-13T15:03:51;17.20;99.90
37956;DHT22;23776;51.592;7.180;2023-02-13T15:06:37;17.00;99.90
37956;DHT22;23776;51.592;7.180;2023-02-13T15:09:23;17.00;99.90
37956;DHT22;23776;51.592;7.180;2023-02-13T15:11:50;16.80;99.90
37956;DHT22;23776;51.592;7.180;2023-02-13T15:14:34;16.60;99.90
37956;DHT22;23776;51.592;7.180;2023-02-13T15:17:06;16.30;99.90
37956;DHT22;23776;51.592;7.180;2023-02-13T15:19:36;16.00;99.90
37956;DHT22;23776;51.592;7.180;2023-02-13T15:22:04;15.80;99.90
37956;DHT22;23776;51.592;7.180;2023-02-13T15:24:37;15.60;99.90
37956;DHT22;23776;51.592;7.180;2023-02-13T15:27:26;15.20;1.00
37956;DHT22;23776;51.592;7.180;2023-02-13T15:30:02;15.90;1.00
37956;DHT22;23776;51.592;7.180;2023-02-13T15:32:37;15.00;1.00
37956;DHT22;23776;51.592;7.180;2023-02-13T15:35:24;14.80;1.00
37956;DHT22;23776;51.592;7.180;2023-02-13T15:37:50;14.60;1.00
37956;DHT22;23776;51.592;7.180;2023-02-13T15:40:28;14.40;1.00
37956;DHT22;23776;51.592;7.180;2023-02-13T15:42:55;14.20;33.50
37956;DHT22;23776;51.592;7.180;2023-02-13T15:45:24;14.10;99.90
37956;DHT22;23776;51.592;7.180;2023-02-13T15:47:51;14.20;99.90
37956;DHT22;23776;51.592;7.180;2023-02-13T15:50:38;13.90;99.90
37956;DHT22;23776;51.592;7.180;2023-02-13T15:53:12;13.80;99.90
37956;DHT22;23776;51.592;7.180;2023-02-13T15:55:38;13.60;99.90
37956;DHT22;23776;51.592;7.180;2023-02-13T15:58:04;13.30;99.90
37956;DHT22;23776;51.592;7.180;2023-02-13T16:00:34;13.50;99.90
37956;DHT22;23776;51.592;7.180;2023-02-13T16:03:02;13.40;99.90
37956;DHT22;23776;51.592;7.180;2023-02-13T16:05:33;13.30;1.00
37956;DHT22;23776;51.592;7.180;2023-02-13T16:08:01;13.30;1.00
37956;DHT22;23776;51.592;7.180;2023-02-13T16:10:34;13.20;1.00
37956;DHT22;23776;51.592;7.180;2023-02-13T16:13:06;13.10;99.90
37956;DHT22;23776;51.592;7.180;2023-02-13T16:15:34;13.00;99.90
37956;DHT22;23776;51.592;7.180;2023-02-13T16:18:00;13.00;99.90
37956;DHT22;23776;51.592;7.180;2023-02-13T16:20:29;12.90;99.90
37956;DHT22;23776;51.592;7.180;2023-02-13T16:23:02;12.90;99.90
37956;DHT22;23776;51.592;7.180;2023-02-13T16:25:32;12.80;99.90
37956;DHT22;23776;51.592;7.180;2023-02-13T16:28:10;12.80;99.90
37956;DHT22;23776;51.592;7.180;2023-02-13T16:30:46;12.50;99.90
37956;DHT22;23776;51.592;7.180;2023-02-13T16:35:43;12.20;1.00
37956;DHT22;23776;51.592;7.180;2023-02-13T16:41:01;12.30;99.90
37956;DHT22;23776;51.592;7.180;2023-02-13T16:46:32;12.20;99.90
37956;DHT22;23776;51.592;7.180;2023-02-13T16:53:57;12.00;99.90
37956;DHT22;23776;51.592;7.180;2023-02-13T16:56:24;11.80;95.30
37956;DHT22;23776;51.592;7.180;2023-02-13T16:58:49;11.60;99.90
37956;DHT22;23776;51.592;7.180;2023-02-13T17:01:26;11.50;99.90
37956;DHT22;23776;51.592;7.180;2023-02-13T17:03:52;11.40;1.00
37956;DHT22;23776;51.592;7.180;2023-02-13T17:06:18;11.10;1.00
37956;DHT22;23776;51.592;7.180;2023-02-13T17:08:44;11.10;1.00
37956;DHT22;23776;51.592;7.180;2023-02-13T17:11:17;11.10;99.90
37956;DHT22;23776;51.592;7.180;2023-02-13T17:13:43;11.00;99.90
37956;DHT22;23776;51.592;7.180;2023-02-13T17:16:09;10.80;1.00
37956;DHT22;23776;51.592;7.180;2023-02-13T17:18:35;10.90;1.00
37956;DHT22;23776;51.592;7.180;2023-02-13T17:21:01;10.80;99.90
37956;DHT22;23776;51.592;7.180;2023-02-13T17:23:27;10.90;99.90
37956;DHT22;23776;51.592;7.180;2023-02-13T17:25:52;10.70;99.90
37956;DHT22;23776;51.592;7.180;2023-02-13T17:28:24;10.70;99.90
37956;DHT22;23776;51.592;7.180;2023-02-13T17:30:52;10.70;99.90
37956;DHT22;23776;51.592;7.180;2023-02-13T17:33:23;10.60;99.90
37956;DHT22;23776;51.592;7.180;2023-02-13T17:35:49;10.50;1.00
37956;DHT22;23776;51.592;7.180;2023-02-13T17:38:15;10.50;40.60
37956;DHT22;23776;51.592;7.180;2023-02-13T17:40:42;10.40;99.90
37956;DHT22;23776;51.592;7.180;2023-02-13T17:43:12;10.40;99.90
37956;DHT22;23776;51.592;7.180;2023-02-13T17:45:38;10.40;1.00
37956;DHT22;23776;51.592;7.180;2023-02-13T17:48:05;10.30;28.40
37956;DHT22;23776;51.592;7.180;2023-02-13T17:50:31;10.20;99.90
37956;DHT22;23776;51.592;7.180;2023-02-13T17:53:01;10.20;99.90
37956;DHT22;23776;51.592;7.180;2023-02-13T18:02:21;9.90;1.00
37956;DHT22;23776;51.592;7.180;2023-02-13T18:04:50;9.80;1.00
37956;DHT22;23776;51.592;7.180;2023-02-13T18:07:19;9.90;99.90
37956;DHT22;23776;51.592;7.180;2023-02-13T18:09:46;9.80;99.90
37956;DHT22;23776;51.592;7.180;2023-02-13T18:26:09;9.60;7.70
37956;DHT22;23776;51.592;7.180;2023-02-13T18:28:36;9.50;2.60
37956;DHT22;23776;51.592;7.180;2023-02-13T18:31:02;9.50;7.50
37956;DHT22;23776;51.592;7.180;2023-02-13T19:04:21;8.90;99.90
37956;DHT22;23776;51.592;7.180;2023-02-13T19:06:46;8.80;99.90
37956;DHT22;23776;51.592;7.180;2023-02-13T19:09:12;8.70;99.90
37956;DHT22;23776;51.592;7.180;2023-02-13T19:11:38;8.70;99.90
37956;DHT22;23776;51.592;7.180;2023-02-13T19:14:06;8.60;99.90
37956;DHT22;23776;51.592;7.180;2023-02-13T19:16:34;8.60;99.90
37956;DHT22;23776;51.592;7.180;2023-02-13T19:19:02;8.60;99.90
37956;DHT22;23776;51.592;7.180;2023-02-13T19:21:31;8.60;99.90
37956;DHT22;23776;51.592;7.180;2023-02-13T19:30:45;8.50;99.90
37956;DHT22;23776;51.592;7.180;2023-02-13T19:33:11;8.40;99.90
37956;DHT22;23776;51.592;7.180;2023-02-13T19:35:38;8.40;99.90
37956;DHT22;23776;51.592;7.180;2023-02-13T19:38:04;8.30;99.90
37956;DHT22;23776;51.592;7.180;2023-02-13T19:40:31;8.20;99.90
37956;DHT22;23776;51.592;7.180;2023-02-13T19:42:57;8.20;99.90
37956;DHT22;23776;51.592;7.180;2023-02-13T19:45:23;8.20;1.00
37956;DHT22;23776;51.592;7.180;2023-02-13T19:47:49;8.20;1.00
37956;DHT22;23776;51.592;7.180;2023-02-13T20:04:31;8.00;1.00
37956;DHT22;23776;51.592;7.180;2023-02-13T20:07:01;8.00;1.00